sensor_id;sensor_type;location;lat;lon;timestamp;P1;durP1;ratioP1;P2;durP2;ratioP2
22357;SDS011;11346;50.150;8.150;2023-04-30T00:02:06;19.30;;;13.87;;
22357;SDS011;11346;50.150;8.150;2023-04-30T00:04:33;19.23;;;12.63;;
22357;SDS011;11346;50.150;8.150;2023-04-30T00:07:00;21.67;;;13.63;;
22357;SDS011;11346;50.150;8.150;2023-04-30T00:09:28;22.50;;;13.37;;
22357;SDS011;11346;50.150;8.150;2023-04-30T00:11:56;19.70;;;13.90;;
22357;SDS011;11346;50.150;8.150;2023-04-30T00:14:23;18.83;;;12.30;;
22357;SDS011;11346;50.150;8.150;2023-04-30T00:16:51;18.10;;;13.00;;
22357;SDS011;11346;50.150;8.150;2023-04-30T00:19:18;15.93;;;11.77;;
22357;SDS011;11346;50.150;8.150;2023-04-30T00:21:45;17.03;;;11.87;;
22357;SDS011;11346;50.150;8.150;2023-04-30T00:24:12;17.80;;;12.03;;
22357;SDS011;11346;50.150;8.150;2023-04-30T00:26:39;20.50;;;12.87;;
22357;SDS011;11346;50.150;8.150;2023-04-30T00:29:09;17.83;;;12.47;;
22357;SDS011;11346;50.150;8.150;2023-04-30T00:31:36;18.73;;;12.70;;
22357;SDS011;11346;50.150;8.150;2023-04-30T00:34:03;23.20;;;13.53;;
22357;SDS011;11346;50.150;8.150;2023-04-30T00:36:30;19.07;;;13.17;;
22357;SDS011;11346;50.150;8.150;2023-04-30T00:38:57;19.13;;;13.80;;
22357;SDS011;11346;50.150;8.150;2023-04-30T00:41:24;21.33;;;13.77;;
22357;SDS011;11346;50.150;8.150;2023-04-30T00:43:51;23.50;;;14.37;;
22357;SDS011;11346;50.150;8.150;2023-04-30T00:46:20;19.87;;;13.20;;
22357;SDS011;11346;50.150;8.150;2023-04-30T00:48:47;19.30;;;13.70;;
22357;SDS011;11346;50.150;8.150;2023-04-30T00:51:14;21.10;;;14.20;;
22357;SDS011;11346;50.150;8.150;2023-04-30T00:53:41;19.20;;;13.00;;
22357;SDS011;11346;50.150;8.150;2023-04-30T00:56:09;20.17;;;13.47;;
22357;SDS011;11346;50.150;8.150;2023-04-30T00:58:36;20.87;;;13.63;;
22357;SDS011;11346;50.150;8.150;2023-04-30T01:01:03;23.07;;;13.83;;
22357;SDS011;11346;50.150;8.150;2023-04-30T01:03:32;18.40;;;13.13;;
22357;SDS011;11346;50.150;8.150;2023-04-30T01:05:59;21.47;;;13.73;;
22357;SDS011;11346;50.150;8.150;2023-04-30T01:08:27;18.33;;;12.80;;
22357;SDS011;11346;50.150;8.150;2023-04-30T01:10:55;19.33;;;13.73;;
22357;SDS011;11346;50.150;8.150;2023-04-30T01:13:26;22.80;;;14.57;;
22357;SDS011;11346;50.150;8.150;2023-04-30T01:15:56;18.97;;;14.10;;
22357;SDS011;11346;50.150;8.150;2023-04-30T01:18:27;23.00;;;14.60;;
22357;SDS011;11346;50.150;8.150;2023-04-30T01:21:00;21.97;;;14.73;;
22357;SDS011;11346;50.150;8.150;2023-04-30T01:23:32;25.07;;;14.50;;
22357;SDS011;11346;50.150;8.150;2023-04-30T01:26:07;21.90;;;14.63;;
22357;SDS011;11346;50.150;8.150;2023-04-30T01:28:38;24.10;;;15.03;;
22357;SDS011;11346;50.150;8.150;2023-04-30T01:31:10;22.50;;;14.73;;
22357;SDS011;11346;50.150;8.150;2023-04-30T01:33:37;18.43;;;13.60;;
22357;SDS011;11346;50.150;8.150;2023-04-30T01:36:17;18.50;;;12.97;;
22357;SDS011;11346;50.150;8.150;2023-04-30T01:38:54;18.07;;;12.50;;
22357;SDS011;11346;50.150;8.150;2023-04-30T01:41:27;20.27;;;13.70;;
22357;SDS011;11346;50.150;8.150;2023-04-30T01:43:59;19.37;;;13.07;;
22357;SDS011;11346;50.150;8.150;2023-04-30T01:46:29;21.60;;;14.07;;
22357;SDS011;11346;50.150;8.150;2023-04-30T01:48:59;19.30;;;13.87;;
22357;SDS011;11346;50.150;8.150;2023-04-30T01:51:31;21.27;;;13.67;;
22357;SDS011;11346;50.150;8.150;2023-04-30T01:54:00;21.77;;;13.70;;
22357;SDS011;11346;50.150;8.150;2023-04-30T01:56:30;23.93;;;14.63;;
22357;SDS011;11346;50.150;8.150;2023-04-30T01:58:58;22.20;;;13.27;;
22357;SDS011;11346;50.150;8.150;2023-04-30T02:01:26;17.90;;;13.03;;
22357;SDS011;11346;50.150;8.150;2023-04-30T02:03:53;19.37;;;13.10;;
22357;SDS011;11346;50.150;8.150;2023-04-30T02:06:21;19.77;;;13.70;;
22357;SDS011;11346;50.150;8.150;2023-04-30T02:08:52;18.90;;;13.27;;
22357;SDS011;11346;50.150;8.150;2023-04-30T02:11:19;16.97;;;12.90;;
22357;SDS011;11346;50.150;8.150;2023-04-30T02:13:48;20.60;;;14.13;;
22357;SDS011;11346;50.150;8.150;2023-04-30T02:16:16;18.40;;;13.13;;
22357;SDS011;11346;50.150;8.150;2023-04-30T02:18:43;19.93;;;13.23;;
22357;SDS011;11346;50.150;8.150;2023-04-30T02:21:10;20.50;;;13.97;;
22357;SDS011;11346;50.150;8.150;2023-04-30T02:23:38;18.17;;;13.53;;
22357;SDS011;11346;50.150;8.150;2023-04-30T02:26:05;22.40;;;13.80;;
22357;SDS011;11346;50.150;8.150;2023-04-30T02:28:32;21.57;;;14.33;;
22357;SDS011;11346;50.150;8.150;2023-04-30T02:31:00;27.60;;;14.37;;
22357;SDS011;11346;50.150;8.150;2023-04-30T02:33:28;22.90;;;13.90;;
22357;SDS011;11346;50.150;8.150;2023-04-30T02:35:57;20.13;;;14.80;;
22357;SDS011;11346;50.150;8.150;2023-04-30T02:38:24;22.73;;;15.00;;
22357;SDS011;11346;50.150;8.150;2023-04-30T02:40:51;25.17;;;14.47;;
22357;SDS011;11346;50.150;8.150;2023-04-30T02:43:18;22.57;;;15.00;;
22357;SDS011;11346;50.150;8.150;2023-04-30T02:45:45;21.33;;;14.53;;
22357;SDS011;11346;50.150;8.150;2023-04-30T02:48:12;22.67;;;14.70;;
22357;SDS011;11346;50.150;8.150;2023-04-30T02:50:40;21.10;;;15.07;;
22357;SDS011;11346;50.150;8.150;2023-04-30T02:53:07;21.90;;;15.00;;
22357;SDS011;11346;50.150;8.150;2023-04-30T02:55:34;20.83;;;14.07;;
22357;SDS011;11346;50.150;8.150;2023-04-30T02:58:01;26.77;;;15.63;;
22357;SDS011;11346;50.150;8.150;2023-04-30T03:00:28;19.40;;;13.97;;
22357;SDS011;11346;50.150;8.150;2023-04-30T03:02:55;23.30;;;15.37;;
22357;SDS011;11346;50.150;8.150;2023-04-30T03:05:22;19.10;;;12.57;;
22357;SDS011;11346;50.150;8.150;2023-04-30T03:07:51;18.17;;;11.73;;
22357;SDS011;11346;50.150;8.150;2023-04-30T03:10:18;16.07;;;11.90;;
22357;SDS011;11346;50.150;8.150;2023-04-30T03:12:45;21.00;;;12.57;;
22357;SDS011;11346;50.150;8.150;2023-04-30T03:15:12;18.57;;;11.67;;
22357;SDS011;11346;50.150;8.150;2023-04-30T03:17:39;18.43;;;12.77;;
22357;SDS011;11346;50.150;8.150;2023-04-30T03:20:06;17.90;;;12.27;;
22357;SDS011;11346;50.150;8.150;2023-04-30T03:22:34;19.27;;;13.47;;
22357;SDS011;11346;50.150;8.150;2023-04-30T03:25:02;17.43;;;13.20;;
22357;SDS011;11346;50.150;8.150;2023-04-30T03:27:29;22.13;;;14.23;;
22357;SDS011;11346;50.150;8.150;2023-04-30T03:29:56;20.27;;;14.13;;
22357;SDS011;11346;50.150;8.150;2023-04-30T03:32:23;21.50;;;13.30;;
22357;SDS011;11346;50.150;8.150;2023-04-30T03:34:50;19.47;;;12.83;;
22357;SDS011;11346;50.150;8.150;2023-04-30T03:37:17;18.60;;;14.00;;
22357;SDS011;11346;50.150;8.150;2023-04-30T03:39:44;19.63;;;13.70;;
22357;SDS011;11346;50.150;8.150;2023-04-30T03:42:13;23.27;;;14.00;;
22357;SDS011;11346;50.150;8.150;2023-04-30T03:44:40;26.57;;;16.13;;
22357;SDS011;11346;50.150;8.150;2023-04-30T03:47:07;21.57;;;14.93;;
22357;SDS011;11346;50.150;8.150;2023-04-30T03:49:34;21.57;;;14.90;;
22357;SDS011;11346;50.150;8.150;2023-04-30T03:52:01;21.43;;;14.83;;
22357;SDS011;11346;50.150;8.150;2023-04-30T03:54:29;19.60;;;13.83;;
22357;SDS011;11346;50.150;8.150;2023-04-30T03:56:57;22.67;;;14.13;;
22357;SDS011;11346;50.150;8.150;2023-04-30T03:59:26;26.17;;;14.23;;
22357;SDS011;11346;50.150;8.150;2023-04-30T04:01:53;23.20;;;15.00;;
22357;SDS011;11346;50.150;8.150;2023-04-30T04:04:20;25.73;;;15.90;;
22357;SDS011;11346;50.150;8.150;2023-04-30T04:06:47;25.50;;;15.50;;
22357;SDS011;11346;50.150;8.150;2023-04-30T04:09:14;26.63;;;15.53;;
22357;SDS011;11346;50.150;8.150;2023-04-30T04:11:41;26.97;;;15.70;;
22357;SDS011;11346;50.150;8.150;2023-04-30T04:14:09;26.17;;;16.03;;
22357;SDS011;11346;50.150;8.150;2023-04-30T04:16:38;29.07;;;16.17;;
22357;SDS011;11346;50.150;8.150;2023-04-30T04:19:06;24.90;;;16.43;;
22357;SDS011;11346;50.150;8.150;2023-04-30T04:21:33;24.47;;;15.70;;
22357;SDS011;11346;50.150;8.150;2023-04-30T04:24:00;20.27;;;14.00;;
22357;SDS011;11346;50.150;8.150;2023-04-30T04:26:32;25.03;;;14.53;;
22357;SDS011;11346;50.150;8.150;2023-04-30T04:29:00;22.43;;;14.07;;
22357;SDS011;11346;50.150;8.150;2023-04-30T04:31:27;25.50;;;16.10;;
22357;SDS011;11346;50.150;8.150;2023-04-30T04:33:57;19.73;;;12.97;;
22357;SDS011;11346;50.150;8.150;2023-04-30T04:36:25;21.23;;;13.67;;
22357;SDS011;11346;50.150;8.150;2023-04-30T04:38:52;23.40;;;15.27;;
22357;SDS011;11346;50.150;8.150;2023-04-30T04:41:19;23.67;;;15.47;;
22357;SDS011;11346;50.150;8.150;2023-04-30T04:43:47;24.60;;;14.83;;
22357;SDS011;11346;50.150;8.150;2023-04-30T04:46:14;27.50;;;14.60;;
22357;SDS011;11346;50.150;8.150;2023-04-30T04:48:42;17.80;;;11.43;;
22357;SDS011;11346;50.150;8.150;2023-04-30T04:51:10;18.27;;;11.40;;
22357;SDS011;11346;50.150;8.150;2023-04-30T04:53:37;18.60;;;11.93;;
22357;SDS011;11346;50.150;8.150;2023-04-30T04:56:05;16.53;;;12.10;;
22357;SDS011;11346;50.150;8.150;2023-04-30T04:58:33;22.90;;;13.27;;
22357;SDS011;11346;50.150;8.150;2023-04-30T05:01:00;20.53;;;13.30;;
22357;SDS011;11346;50.150;8.150;2023-04-30T05:03:29;19.77;;;13.20;;
22357;SDS011;11346;50.150;8.150;2023-04-30T05:05:56;17.40;;;11.80;;
22357;SDS011;11346;50.150;8.150;2023-04-30T05:08:24;16.93;;;11.73;;
22357;SDS011;11346;50.150;8.150;2023-04-30T05:10:51;18.57;;;11.93;;
22357;SDS011;11346;50.150;8.150;2023-04-30T05:13:18;23.37;;;13.53;;
22357;SDS011;11346;50.150;8.150;2023-04-30T05:15:45;18.77;;;11.80;;
22357;SDS011;11346;50.150;8.150;2023-04-30T05:18:12;19.73;;;12.47;;
22357;SDS011;11346;50.150;8.150;2023-04-30T05:20:40;23.43;;;14.63;;
22357;SDS011;11346;50.150;8.150;2023-04-30T05:23:07;23.23;;;13.63;;
22357;SDS011;11346;50.150;8.150;2023-04-30T05:25:35;24.33;;;14.97;;
22357;SDS011;11346;50.150;8.150;2023-04-30T05:28:02;21.67;;;14.37;;
22357;SDS011;11346;50.150;8.150;2023-04-30T05:30:30;20.03;;;12.50;;
22357;SDS011;11346;50.150;8.150;2023-04-30T05:32:57;15.53;;;11.33;;
22357;SDS011;11346;50.150;8.150;2023-04-30T05:35:25;17.47;;;11.53;;
22357;SDS011;11346;50.150;8.150;2023-04-30T05:37:52;21.97;;;13.93;;
22357;SDS011;11346;50.150;8.150;2023-04-30T05:40:19;24.67;;;14.77;;
22357;SDS011;11346;50.150;8.150;2023-04-30T05:42:47;22.87;;;14.50;;
22357;SDS011;11346;50.150;8.150;2023-04-30T05:45:14;21.80;;;14.40;;
22357;SDS011;11346;50.150;8.150;2023-04-30T05:47:41;20.63;;;14.73;;
22357;SDS011;11346;50.150;8.150;2023-04-30T05:50:08;20.60;;;14.57;;
22357;SDS011;11346;50.150;8.150;2023-04-30T05:52:36;21.53;;;14.37;;
22357;SDS011;11346;50.150;8.150;2023-04-30T05:55:03;24.07;;;14.70;;
22357;SDS011;11346;50.150;8.150;2023-04-30T05:57:30;21.83;;;14.43;;
22357;SDS011;11346;50.150;8.150;2023-04-30T06:00:00;22.80;;;15.30;;
22357;SDS011;11346;50.150;8.150;2023-04-30T06:02:30;22.77;;;14.53;;
22357;SDS011;11346;50.150;8.150;2023-04-30T06:04:57;21.60;;;14.23;;
22357;SDS011;11346;50.150;8.150;2023-04-30T06:07:26;18.87;;;12.60;;
22357;SDS011;11346;50.150;8.150;2023-04-30T06:09:53;18.80;;;12.10;;
22357;SDS011;11346;50.150;8.150;2023-04-30T06:12:20;20.13;;;11.90;;
22357;SDS011;11346;50.150;8.150;2023-04-30T06:14:47;14.03;;;9.83;;
22357;SDS011;11346;50.150;8.150;2023-04-30T06:17:15;16.00;;;10.73;;
22357;SDS011;11346;50.150;8.150;2023-04-30T06:19:42;12.83;;;9.93;;
22357;SDS011;11346;50.150;8.150;2023-04-30T06:22:09;14.30;;;9.60;;
22357;SDS011;11346;50.150;8.150;2023-04-30T06:24:37;11.90;;;8.60;;
22357;SDS011;11346;50.150;8.150;2023-04-30T06:27:04;13.47;;;8.60;;
22357;SDS011;11346;50.150;8.150;2023-04-30T06:29:31;12.60;;;8.20;;
22357;SDS011;11346;50.150;8.150;2023-04-30T06:31:58;10.57;;;7.30;;
22357;SDS011;11346;50.150;8.150;2023-04-30T06:34:26;15.53;;;8.60;;
22357;SDS011;11346;50.150;8.150;2023-04-30T06:36:53;11.63;;;7.90;;
22357;SDS011;11346;50.150;8.150;2023-04-30T06:39:20;11.03;;;6.87;;
22357;SDS011;11346;50.150;8.150;2023-04-30T06:41:47;14.90;;;7.63;;
22357;SDS011;11346;50.150;8.150;2023-04-30T06:44:16;14.53;;;8.70;;
22357;SDS011;11346;50.150;8.150;2023-04-30T06:46:43;12.93;;;7.10;;
22357;SDS011;11346;50.150;8.150;2023-04-30T06:49:10;11.10;;;6.73;;
22357;SDS011;11346;50.150;8.150;2023-04-30T06:51:41;9.83;;;6.50;;
22357;SDS011;11346;50.150;8.150;2023-04-30T06:54:08;13.37;;;6.53;;
22357;SDS011;11346;50.150;8.150;2023-04-30T06:56:35;9.30;;;6.30;;
22357;SDS011;11346;50.150;8.150;2023-04-30T06:59:02;14.57;;;6.40;;
22357;SDS011;11346;50.150;8.150;2023-04-30T07:01:29;9.10;;;5.80;;
22357;SDS011;11346;50.150;8.150;2023-04-30T07:03:56;9.53;;;5.83;;
22357;SDS011;11346;50.150;8.150;2023-04-30T07:06:24;10.23;;;5.93;;
22357;SDS011;11346;50.150;8.150;2023-04-30T07:08:52;8.40;;;6.30;;
22357;SDS011;11346;50.150;8.150;2023-04-30T07:11:19;9.43;;;5.77;;
22357;SDS011;11346;50.150;8.150;2023-04-30T07:13:46;10.33;;;7.00;;
22357;SDS011;11346;50.150;8.150;2023-04-30T07:16:13;8.47;;;6.67;;
22357;SDS011;11346;50.150;8.150;2023-04-30T07:18:41;8.17;;;6.50;;
22357;SDS011;11346;50.150;8.150;2023-04-30T07:21:08;9.70;;;6.43;;
22357;SDS011;11346;50.150;8.150;2023-04-30T07:23:35;9.60;;;6.20;;
22357;SDS011;11346;50.150;8.150;2023-04-30T07:26:03;10.83;;;5.93;;
22357;SDS011;11346;50.150;8.150;2023-04-30T07:28:30;8.67;;;6.00;;
22357;SDS011;11346;50.150;8.150;2023-04-30T07:30:57;8.57;;;5.70;;
22357;SDS011;11346;50.150;8.150;2023-04-30T07:33:24;8.20;;;4.90;;
22357;SDS011;11346;50.150;8.150;2023-04-30T07:35:52;6.13;;;4.87;;
22357;SDS011;11346;50.150;8.150;2023-04-30T07:38:20;6.13;;;5.13;;
22357;SDS011;11346;50.150;8.150;2023-04-30T07:40:47;6.60;;;4.50;;
22357;SDS011;11346;50.150;8.150;2023-04-30T07:43:16;8.13;;;5.10;;
22357;SDS011;11346;50.150;8.150;2023-04-30T07:45:43;6.70;;;4.67;;
22357;SDS011;11346;50.150;8.150;2023-04-30T07:48:10;7.13;;;4.80;;
22357;SDS011;11346;50.150;8.150;2023-04-30T07:50:37;7.50;;;4.50;;
22357;SDS011;11346;50.150;8.150;2023-04-30T07:53:04;9.57;;;4.23;;
22357;SDS011;11346;50.150;8.150;2023-04-30T07:55:33;5.23;;;4.27;;
22357;SDS011;11346;50.150;8.150;2023-04-30T07:58:00;6.50;;;4.43;;
22357;SDS011;11346;50.150;8.150;2023-04-30T08:00:29;4.63;;;4.20;;
22357;SDS011;11346;50.150;8.150;2023-04-30T08:02:56;12.10;;;5.67;;
22357;SDS011;11346;50.150;8.150;2023-04-30T08:05:24;5.80;;;4.67;;
22357;SDS011;11346;50.150;8.150;2023-04-30T08:07:51;4.70;;;4.30;;
22357;SDS011;11346;50.150;8.150;2023-04-30T08:10:18;6.20;;;3.93;;
22357;SDS011;11346;50.150;8.150;2023-04-30T08:12:45;5.73;;;3.83;;
22357;SDS011;11346;50.150;8.150;2023-04-30T08:15:12;5.10;;;3.70;;
22357;SDS011;11346;50.150;8.150;2023-04-30T08:17:41;5.03;;;3.60;;
22357;SDS011;11346;50.150;8.150;2023-04-30T08:20:09;5.20;;;3.77;;
22357;SDS011;11346;50.150;8.150;2023-04-30T08:22:36;4.00;;;3.00;;
22357;SDS011;11346;50.150;8.150;2023-04-30T08:25:03;3.57;;;3.10;;
22357;SDS011;11346;50.150;8.150;2023-04-30T08:27:30;3.00;;;2.80;;
22357;SDS011;11346;50.150;8.150;2023-04-30T08:29:57;3.90;;;2.90;;
22357;SDS011;11346;50.150;8.150;2023-04-30T08:32:24;4.53;;;2.77;;
22357;SDS011;11346;50.150;8.150;2023-04-30T08:34:53;3.10;;;2.50;;
22357;SDS011;11346;50.150;8.150;2023-04-30T08:37:20;2.47;;;2.27;;
22357;SDS011;11346;50.150;8.150;2023-04-30T08:39:47;3.00;;;2.30;;
22357;SDS011;11346;50.150;8.150;2023-04-30T08:42:14;3.03;;;2.43;;
22357;SDS011;11346;50.150;8.150;2023-04-30T08:44:43;2.83;;;2.17;;
22357;SDS011;11346;50.150;8.150;2023-04-30T08:47:11;2.20;;;1.80;;
22357;SDS011;11346;50.150;8.150;2023-04-30T08:49:38;3.07;;;2.00;;
22357;SDS011;11346;50.150;8.150;2023-04-30T08:52:07;2.30;;;2.00;;
22357;SDS011;11346;50.150;8.150;2023-04-30T08:54:34;2.00;;;1.90;;
22357;SDS011;11346;50.150;8.150;2023-04-30T08:57:01;2.23;;;2.00;;
22357;SDS011;11346;50.150;8.150;2023-04-30T08:59:28;1.90;;;1.80;;
22357;SDS011;11346;50.150;8.150;2023-04-30T09:02:00;3.20;;;1.93;;
22357;SDS011;11346;50.150;8.150;2023-04-30T09:04:42;1.97;;;1.70;;
22357;SDS011;11346;50.150;8.150;2023-04-30T09:07:10;2.20;;;2.00;;
22357;SDS011;11346;50.150;8.150;2023-04-30T09:09:38;4.37;;;1.90;;
22357;SDS011;11346;50.150;8.150;2023-04-30T09:12:15;2.20;;;2.00;;
22357;SDS011;11346;50.150;8.150;2023-04-30T09:14:56;1.60;;;1.50;;
22357;SDS011;11346;50.150;8.150;2023-04-30T09:17:23;1.93;;;1.80;;
22357;SDS011;11346;50.150;8.150;2023-04-30T09:19:51;4.10;;;1.83;;
22357;SDS011;11346;50.150;8.150;2023-04-30T09:22:20;1.83;;;1.50;;
22357;SDS011;11346;50.150;8.150;2023-04-30T09:24:47;1.93;;;1.83;;
22357;SDS011;11346;50.150;8.150;2023-04-30T09:27:15;1.70;;;1.60;;
22357;SDS011;11346;50.150;8.150;2023-04-30T09:29:43;1.63;;;1.53;;
22357;SDS011;11346;50.150;8.150;2023-04-30T09:32:10;1.80;;;1.70;;
22357;SDS011;11346;50.150;8.150;2023-04-30T09:34:38;2.30;;;1.90;;
22357;SDS011;11346;50.150;8.150;2023-04-30T09:37:06;1.70;;;1.60;;
22357;SDS011;11346;50.150;8.150;2023-04-30T09:39:35;1.73;;;1.63;;
22357;SDS011;11346;50.150;8.150;2023-04-30T09:42:12;3.73;;;1.53;;
22357;SDS011;11346;50.150;8.150;2023-04-30T09:44:39;1.60;;;1.50;;
22357;SDS011;11346;50.150;8.150;2023-04-30T09:47:09;1.80;;;1.70;;
22357;SDS011;11346;50.150;8.150;2023-04-30T09:49:39;2.17;;;1.63;;
22357;SDS011;11346;50.150;8.150;2023-04-30T09:52:06;2.70;;;1.47;;
22357;SDS011;11346;50.150;8.150;2023-04-30T09:54:35;1.50;;;1.40;;
22357;SDS011;11346;50.150;8.150;2023-04-30T09:57:09;1.83;;;1.73;;
22357;SDS011;11346;50.150;8.150;2023-04-30T09:59:36;1.90;;;1.80;;
22357;SDS011;11346;50.150;8.150;2023-04-30T10:02:04;1.80;;;1.70;;
22357;SDS011;11346;50.150;8.150;2023-04-30T10:04:32;3.17;;;1.50;;
22357;SDS011;11346;50.150;8.150;2023-04-30T10:07:00;1.90;;;1.60;;
22357;SDS011;11346;50.150;8.150;2023-04-30T10:09:28;1.80;;;1.70;;
22357;SDS011;11346;50.150;8.150;2023-04-30T10:11:58;1.60;;;1.50;;
22357;SDS011;11346;50.150;8.150;2023-04-30T10:14:26;1.90;;;1.80;;
22357;SDS011;11346;50.150;8.150;2023-04-30T10:16:54;3.07;;;1.70;;
22357;SDS011;11346;50.150;8.150;2023-04-30T10:19:23;4.27;;;1.70;;
22357;SDS011;11346;50.150;8.150;2023-04-30T10:21:51;1.67;;;1.57;;
22357;SDS011;11346;50.150;8.150;2023-04-30T10:24:18;4.00;;;2.07;;
22357;SDS011;11346;50.150;8.150;2023-04-30T10:26:46;2.00;;;1.47;;
22357;SDS011;11346;50.150;8.150;2023-04-30T10:29:16;1.87;;;1.77;;
22357;SDS011;11346;50.150;8.150;2023-04-30T10:31:44;2.13;;;1.50;;
22357;SDS011;11346;50.150;8.150;2023-04-30T10:34:13;1.80;;;1.70;;
22357;SDS011;11346;50.150;8.150;2023-04-30T10:36:41;1.67;;;1.57;;
22357;SDS011;11346;50.150;8.150;2023-04-30T10:39:09;1.90;;;1.80;;
22357;SDS011;11346;50.150;8.150;2023-04-30T10:41:37;4.67;;;2.03;;
22357;SDS011;11346;50.150;8.150;2023-04-30T10:44:04;2.07;;;1.90;;
22357;SDS011;11346;50.150;8.150;2023-04-30T10:46:35;1.80;;;1.70;;
22357;SDS011;11346;50.150;8.150;2023-04-30T10:49:02;2.00;;;1.90;;
22357;SDS011;11346;50.150;8.150;2023-04-30T10:51:45;3.27;;;1.70;;
22357;SDS011;11346;50.150;8.150;2023-04-30T10:54:13;1.70;;;1.60;;
22357;SDS011;11346;50.150;8.150;2023-04-30T10:56:43;2.77;;;1.70;;
22357;SDS011;11346;50.150;8.150;2023-04-30T10:59:11;1.70;;;1.60;;
22357;SDS011;11346;50.150;8.150;2023-04-30T11:01:55;1.80;;;1.70;;
22357;SDS011;11346;50.150;8.150;2023-04-30T11:04:22;1.70;;;1.60;;
22357;SDS011;11346;50.150;8.150;2023-04-30T11:07:00;1.93;;;1.30;;
22357;SDS011;11346;50.150;8.150;2023-04-30T11:09:38;2.53;;;1.50;;
22357;SDS011;11346;50.150;8.150;2023-04-30T11:12:12;2.93;;;1.53;;
22357;SDS011;11346;50.150;8.150;2023-04-30T11:14:40;3.07;;;1.57;;
22357;SDS011;11346;50.150;8.150;2023-04-30T11:17:09;2.87;;;2.17;;
22357;SDS011;11346;50.150;8.150;2023-04-30T11:19:46;1.50;;;1.40;;
22357;SDS011;11346;50.150;8.150;2023-04-30T11:22:23;2.03;;;1.50;;
22357;SDS011;11346;50.150;8.150;2023-04-30T11:24:51;2.17;;;1.50;;
22357;SDS011;11346;50.150;8.150;2023-04-30T11:27:18;1.80;;;1.40;;
22357;SDS011;11346;50.150;8.150;2023-04-30T11:29:46;1.20;;;1.20;;
22357;SDS011;11346;50.150;8.150;2023-04-30T11:32:15;0.97;;;0.70;;
22357;SDS011;11346;50.150;8.150;2023-04-30T11:34:42;0.73;;;0.67;;
22357;SDS011;11346;50.150;8.150;2023-04-30T11:37:11;0.60;;;0.60;;
22357;SDS011;11346;50.150;8.150;2023-04-30T11:39:38;1.20;;;0.70;;
22357;SDS011;11346;50.150;8.150;2023-04-30T11:42:05;0.77;;;0.77;;
22357;SDS011;11346;50.150;8.150;2023-04-30T11:44:32;0.80;;;0.80;;
22357;SDS011;11346;50.150;8.150;2023-04-30T11:47:00;0.80;;;0.80;;
22357;SDS011;11346;50.150;8.150;2023-04-30T11:49:28;0.70;;;0.70;;
22357;SDS011;11346;50.150;8.150;2023-04-30T11:51:55;0.93;;;0.93;;
22357;SDS011;11346;50.150;8.150;2023-04-30T11:54:22;6.43;;;0.83;;
22357;SDS011;11346;50.150;8.150;2023-04-30T11:56:49;0.90;;;0.87;;
22357;SDS011;11346;50.150;8.150;2023-04-30T11:59:17;0.80;;;0.80;;
22357;SDS011;11346;50.150;8.150;2023-04-30T12:01:45;2.13;;;0.77;;
22357;SDS011;11346;50.150;8.150;2023-04-30T12:04:12;0.73;;;0.73;;
22357;SDS011;11346;50.150;8.150;2023-04-30T12:06:40;0.60;;;0.60;;
22357;SDS011;11346;50.150;8.150;2023-04-30T12:09:07;1.10;;;0.90;;
22357;SDS011;11346;50.150;8.150;2023-04-30T12:11:36;0.80;;;0.80;;
22357;SDS011;11346;50.150;8.150;2023-04-30T12:14:04;0.80;;;0.80;;
22357;SDS011;11346;50.150;8.150;2023-04-30T12:16:38;1.13;;;1.13;;
22357;SDS011;11346;50.150;8.150;2023-04-30T12:19:05;1.53;;;1.10;;
22357;SDS011;11346;50.150;8.150;2023-04-30T12:21:33;2.67;;;1.10;;
22357;SDS011;11346;50.150;8.150;2023-04-30T12:24:02;0.90;;;0.90;;
22357;SDS011;11346;50.150;8.150;2023-04-30T12:26:35;0.93;;;0.93;;
22357;SDS011;11346;50.150;8.150;2023-04-30T12:29:04;0.80;;;0.80;;
22357;SDS011;11346;50.150;8.150;2023-04-30T12:31:31;1.03;;;1.03;;
22357;SDS011;11346;50.150;8.150;2023-04-30T12:34:02;0.83;;;0.83;;
22357;SDS011;11346;50.150;8.150;2023-04-30T12:36:29;0.60;;;0.60;;
22357;SDS011;11346;50.150;8.150;2023-04-30T12:39:02;0.67;;;0.67;;
22357;SDS011;11346;50.150;8.150;2023-04-30T12:41:29;0.77;;;0.77;;
22357;SDS011;11346;50.150;8.150;2023-04-30T12:46:39;1.40;;;0.93;;
22357;SDS011;11346;50.150;8.150;2023-04-30T12:49:06;1.20;;;1.10;;
22357;SDS011;11346;50.150;8.150;2023-04-30T12:51:35;1.20;;;1.20;;
22357;SDS011;11346;50.150;8.150;2023-04-30T12:54:05;1.23;;;1.10;;
22357;SDS011;11346;50.150;8.150;2023-04-30T12:56:32;1.10;;;1.00;;
22357;SDS011;11346;50.150;8.150;2023-04-30T12:58:59;1.40;;;1.10;;
22357;SDS011;11346;50.150;8.150;2023-04-30T13:01:27;0.90;;;0.90;;
22357;SDS011;11346;50.150;8.150;2023-04-30T13:03:53;0.93;;;0.93;;
22357;SDS011;11346;50.150;8.150;2023-04-30T13:06:20;1.00;;;1.00;;
22357;SDS011;11346;50.150;8.150;2023-04-30T13:08:48;0.80;;;0.80;;
22357;SDS011;11346;50.150;8.150;2023-04-30T13:11:17;2.93;;;0.90;;
22357;SDS011;11346;50.150;8.150;2023-04-30T13:13:44;0.83;;;0.83;;
22357;SDS011;11346;50.150;8.150;2023-04-30T13:16:11;0.80;;;0.73;;
22357;SDS011;11346;50.150;8.150;2023-04-30T13:18:38;1.20;;;1.20;;
22357;SDS011;11346;50.150;8.150;2023-04-30T13:21:05;2.43;;;0.90;;
22357;SDS011;11346;50.150;8.150;2023-04-30T13:23:32;0.70;;;0.70;;
22357;SDS011;11346;50.150;8.150;2023-04-30T13:25:59;0.93;;;0.90;;
22357;SDS011;11346;50.150;8.150;2023-04-30T13:28:27;0.87;;;0.87;;
22357;SDS011;11346;50.150;8.150;2023-04-30T13:30:54;0.87;;;0.87;;
22357;SDS011;11346;50.150;8.150;2023-04-30T13:33:21;1.17;;;0.90;;
22357;SDS011;11346;50.150;8.150;2023-04-30T13:35:48;0.80;;;0.80;;
22357;SDS011;11346;50.150;8.150;2023-04-30T13:38:16;0.87;;;0.87;;
22357;SDS011;11346;50.150;8.150;2023-04-30T13:40:43;1.17;;;0.70;;
22357;SDS011;11346;50.150;8.150;2023-04-30T13:43:10;1.00;;;0.90;;
22357;SDS011;11346;50.150;8.150;2023-04-30T13:45:38;1.47;;;1.07;;
22357;SDS011;11346;50.150;8.150;2023-04-30T13:48:05;1.13;;;1.00;;
22357;SDS011;11346;50.150;8.150;2023-04-30T13:50:32;0.87;;;0.87;;
22357;SDS011;11346;50.150;8.150;2023-04-30T13:53:01;1.50;;;0.60;;
22357;SDS011;11346;50.150;8.150;2023-04-30T13:55:28;1.00;;;1.00;;
22357;SDS011;11346;50.150;8.150;2023-04-30T13:57:56;1.13;;;0.80;;
22357;SDS011;11346;50.150;8.150;2023-04-30T14:00:24;0.77;;;0.77;;
22357;SDS011;11346;50.150;8.150;2023-04-30T14:02:52;0.70;;;0.70;;
22357;SDS011;11346;50.150;8.150;2023-04-30T14:05:19;0.73;;;0.73;;
22357;SDS011;11346;50.150;8.150;2023-04-30T14:07:46;0.93;;;0.73;;
22357;SDS011;11346;50.150;8.150;2023-04-30T14:10:13;1.00;;;1.00;;
22357;SDS011;11346;50.150;8.150;2023-04-30T14:12:40;0.97;;;0.93;;
22357;SDS011;11346;50.150;8.150;2023-04-30T14:15:07;0.90;;;0.90;;
22357;SDS011;11346;50.150;8.150;2023-04-30T14:17:34;0.90;;;0.90;;
22357;SDS011;11346;50.150;8.150;2023-04-30T14:20:03;2.20;;;0.90;;
22357;SDS011;11346;50.150;8.150;2023-04-30T14:22:30;0.90;;;0.90;;
22357;SDS011;11346;50.150;8.150;2023-04-30T14:24:58;1.20;;;1.10;;
22357;SDS011;11346;50.150;8.150;2023-04-30T14:27:25;1.43;;;1.27;;
22357;SDS011;11346;50.150;8.150;2023-04-30T14:29:53;1.30;;;1.20;;
22357;SDS011;11346;50.150;8.150;2023-04-30T14:32:23;0.70;;;0.70;;
22357;SDS011;11346;50.150;8.150;2023-04-30T14:34:50;0.70;;;0.70;;
22357;SDS011;11346;50.150;8.150;2023-04-30T14:37:19;0.80;;;0.80;;
22357;SDS011;11346;50.150;8.150;2023-04-30T14:39:46;2.17;;;1.00;;
22357;SDS011;11346;50.150;8.150;2023-04-30T14:42:14;0.90;;;0.90;;
22357;SDS011;11346;50.150;8.150;2023-04-30T14:44:41;0.80;;;0.80;;